Time;durP1;ratioP1;P1;durP2;ratioP2;P2;SDS_P1;SDS_P2;PMS_P1;PMS_P2;Temp;Humidity;BMP_temperature;BMP_pressure;BME280_temperature;BME280_humidity;BME280_pressure;Samples;Min_cycle;Max_cycle;Signal;HPM_P1;HPM_P2
2023/08/04 00:00:45;;;;;;;5.40;3.60;;;;;;;22.74;100.00;99192.54;108482;1251;73076;-66
2023/08/04 00:03:12;;;;;;;3.90;3.40;;;;;;;22.69;100.00;99194.55;108518;1251;61642;-65
2023/08/04 00:05:39;;;;;;;4.80;3.40;;;;;;;22.66;100.00;99197.73;108509;1252;59812;-64
2023/08/04 00:08:06;;;;;;;3.70;3.30;;;;;;;22.68;100.00;99200.27;106659;1255;73753;-67
2023/08/04 00:10:33;;;;;;;3.70;3.40;;;;;;;22.67;100.00;99202.13;104441;1255;70050;-64
2023/08/04 00:12:59;;;;;;;5.30;3.80;;;;;;;22.67;100.00;99204.84;104348;1253;72801;-64
2023/08/04 00:15:26;;;;;;;4.00;3.10;;;;;;;22.67;100.00;99207.38;104575;1258;62092;-64
2023/08/04 00:17:53;;;;;;;3.20;3.00;;;;;;;22.66;100.00;99207.10;104373;1262;61159;-64
2023/08/04 00:20:20;;;;;;;4.80;3.30;;;;;;;22.66;100.00;99205.27;104233;1266;73950;-64
2023/08/04 00:22:47;;;;;;;5.20;3.20;;;;;;;22.64;100.00;99201.80;104338;1261;70083;-64
2023/08/04 00:25:13;;;;;;;5.50;3.80;;;;;;;22.61;100.00;99199.77;104495;1267;72105;-65
2023/08/04 00:27:40;;;;;;;4.20;3.70;;;;;;;22.59;100.00;99197.60;104324;1256;61784;-65
2023/08/04 00:30:11;;;;;;;3.90;3.60;;;;;;;22.56;100.00;99201.83;104392;1269;59996;-65
2023/08/04 00:32:38;;;;;;;4.50;3.10;;;;;;;22.53;100.00;99205.82;104358;1257;73359;-64
2023/08/04 00:35:05;;;;;;;5.90;3.60;;;;;;;22.49;100.00;99204.24;104536;1268;69255;-64
2023/08/04 00:37:34;;;;;;;4.90;3.50;;;;;;;22.47;100.00;99206.30;104327;1256;73284;-64
2023/08/04 00:40:02;;;;;;;6.00;3.40;;;;;;;22.42;100.00;99198.53;104174;1252;60993;-64
2023/08/04 00:42:29;;;;;;;5.60;3.70;;;;;;;22.38;100.00;99190.91;104309;1254;60558;-64
2023/08/04 00:44:56;;;;;;;4.10;3.60;;;;;;;22.36;100.00;99188.65;104444;1268;73490;-64
2023/08/04 00:47:25;;;;;;;4.00;3.60;;;;;;;22.33;100.00;99193.37;104720;1253;70039;-64
2023/08/04 00:49:54;;;;;;;4.90;3.40;;;;;;;22.32;100.00;99197.02;104285;1267;72358;-64
2023/08/04 00:52:21;;;;;;;5.60;4.00;;;;;;;22.31;100.00;99199.85;104254;1257;61635;-64
2023/08/04 00:54:48;;;;;;;4.40;3.90;;;;;;;22.30;100.00;99196.86;108437;1252;60104;-65
2023/08/04 00:57:15;;;;;;;5.00;3.80;;;;;;;22.29;100.00;99199.88;107488;1253;73699;-65
2023/08/04 00:59:42;;;;;;;7.70;3.90;;;;;;;22.28;100.00;99199.27;104380;1254;68185;-64
2023/08/04 01:02:09;;;;;;;5.00;3.70;;;;;;;22.27;100.00;99199.87;104305;1264;72948;-64
2023/08/04 01:04:36;;;;;;;6.10;4.00;;;;;;;22.27;100.00;99200.71;104499;1261;61759;-64
2023/08/04 01:07:12;;;;;;;7.10;4.20;;;;;;;22.29;100.00;99198.08;104402;1258;60666;-64
2023/08/04 01:10:01;;;;;;;4.00;3.60;;;;;;;22.29;100.00;99197.48;104196;1252;74255;-65
2023/08/04 01:12:38;;;;;;;4.30;3.40;;;;;;;22.29;100.00;99205.05;104394;1255;68808;-64
2023/08/04 01:15:05;;;;;;;5.30;3.80;;;;;;;22.29;100.00;99201.13;104568;1257;72803;-65
2023/08/04 01:17:35;;;;;;;4.20;3.70;;;;;;;22.29;100.00;99196.64;104298;1251;62392;-65
2023/08/04 01:20:05;;;;;;;7.20;3.80;;;;;;;22.27;100.00;99198.10;104334;1251;60667;-65
2023/08/04 01:22:34;;;;;;;5.40;3.90;;;;;;;22.26;100.00;99199.95;104321;1257;74300;-65
2023/08/04 01:25:01;;;;;;;5.70;3.90;;;;;;;22.24;100.00;99199.24;104383;1251;70422;-66
2023/08/04 01:27:46;;;;;;;6.80;3.60;;;;;;;22.22;100.00;99199.11;104655;1252;72960;-66
2023/08/04 01:30:20;;;;;;;3.50;3.20;;;;;;;22.18;100.00;99196.13;104521;1251;61744;-66
2023/08/04 01:32:50;;;;;;;6.00;4.00;;;;;;;22.16;100.00;99195.20;104212;1253;60458;-66
2023/08/04 01:35:17;;;;;;;5.60;3.60;;;;;;;22.14;100.00;99200.77;104369;1256;73538;-66
2023/08/04 01:37:44;;;;;;;4.10;3.70;;;;;;;22.14;100.00;99205.39;104511;1267;69823;-65
2023/08/04 01:40:11;;;;;;;5.10;3.70;;;;;;;22.13;100.00;99205.99;104478;1251;71448;-66
2023/08/04 01:42:39;;;;;;;9.10;4.30;;;;;;;22.12;100.00;99205.20;104379;1259;60713;-66
2023/08/04 01:45:07;;;;;;;3.90;3.60;;;;;;;22.12;100.00;99208.08;104549;1256;60213;-69
2023/08/04 01:47:35;;;;;;;4.20;3.80;;;;;;;22.11;100.00;99209.24;104745;1259;73970;-68
2023/08/04 01:50:02;;;;;;;4.30;3.80;;;;;;;22.12;100.00;99205.23;104448;1251;69505;-65
2023/08/04 01:52:29;;;;;;;5.30;4.10;;;;;;;22.12;100.00;99204.83;104644;1256;73497;-65
2023/08/04 01:54:57;;;;;;;3.40;3.10;;;;;;;22.09;100.00;99204.02;106471;1251;61585;-66
2023/08/04 01:57:24;;;;;;;6.30;3.80;;;;;;;22.07;100.00;99203.57;108116;1251;59259;-66
2023/08/04 01:59:51;;;;;;;5.30;3.90;;;;;;;22.08;100.00;99199.77;104720;1253;74137;-66
2023/08/04 02:02:18;;;;;;;3.40;3.20;;;;;;;22.05;100.00;99200.23;104795;1257;70059;-65
2023/08/04 02:04:45;;;;;;;6.60;3.50;;;;;;;22.04;100.00;99200.14;104371;1275;73444;-66
2023/08/04 02:07:11;;;;;;;3.40;3.20;;;;;;;22.03;100.00;99202.58;105022;1251;61534;-67
2023/08/04 02:09:39;;;;;;;3.90;3.50;;;;;;;22.02;100.00;99207.15;104277;1256;60559;-66
2023/08/04 02:12:06;;;;;;;3.80;3.30;;;;;;;21.99;100.00;99207.23;104301;1252;73848;-66
2023/08/04 02:14:34;;;;;;;4.40;3.60;;;;;;;21.97;100.00;99211.66;104596;1257;69246;-68
2023/08/04 02:17:03;;;;;;;3.60;3.30;;;;;;;21.97;100.00;99211.89;104462;1264;72959;-66
2023/08/04 02:19:29;;;;;;;3.70;3.40;;;;;;;21.97;100.00;99213.23;104599;1256;62654;-66
2023/08/04 02:21:56;;;;;;;4.10;3.20;;;;;;;21.96;100.00;99207.16;104236;1263;60931;-66
2023/08/04 02:24:23;;;;;;;3.90;3.60;;;;;;;21.94;100.00;99205.34;104686;1253;74113;-68
2023/08/04 02:26:50;;;;;;;3.60;3.30;;;;;;;21.92;100.00;99199.89;104617;1267;69162;-67
2023/08/04 02:29:17;;;;;;;4.10;3.70;;;;;;;21.88;100.00;99203.77;104437;1251;71420;-68
2023/08/04 02:31:43;;;;;;;3.90;3.50;;;;;;;21.84;100.00;99210.13;104316;1253;62288;-66
2023/08/04 02:34:11;;;;;;;3.30;2.80;;;;;;;21.80;100.00;99209.08;104322;1267;59721;-67
2023/08/04 02:36:37;;;;;;;5.30;3.50;;;;;;;21.77;100.00;99209.67;104351;1275;73716;-67
2023/08/04 02:39:04;;;;;;;5.40;3.30;;;;;;;21.78;100.00;99209.28;104321;1268;70517;-67
2023/08/04 02:41:33;;;;;;;3.80;3.40;;;;;;;21.80;100.00;99214.59;104312;1259;73069;-68
2023/08/04 02:44:02;;;;;;;3.30;3.10;;;;;;;21.78;100.00;99220.98;104468;1252;62291;-68
2023/08/04 02:46:29;;;;;;;7.00;3.20;;;;;;;21.78;100.00;99219.02;104269;1258;60667;-67
2023/08/04 02:48:57;;;;;;;5.60;3.40;;;;;;;21.80;100.00;99218.88;104333;1252;73840;-66
2023/08/04 02:51:24;;;;;;;4.60;3.20;;;;;;;21.80;100.00;99216.77;104426;1257;69982;-68
2023/08/04 02:53:51;;;;;;;4.20;2.90;;;;;;;21.78;100.00;99222.57;104652;1253;72337;-69
2023/08/04 02:56:18;;;;;;;3.80;3.50;;;;;;;21.79;100.00;99227.89;107957;1252;62011;-67
2023/08/04 02:58:46;;;;;;;3.80;3.40;;;;;;;21.79;100.00;99230.54;106996;1252;60213;-66
2023/08/04 03:01:13;;;;;;;3.50;3.30;;;;;;;21.79;100.00;99230.36;104549;1253;74565;-67
2023/08/04 03:03:40;;;;;;;9.00;3.60;;;;;;;21.81;100.00;99233.80;104537;1257;69274;-67
2023/08/04 03:06:07;;;;;;;3.60;2.80;;;;;;;21.81;100.00;99240.88;104553;1257;72520;-68
2023/08/04 03:08:34;;;;;;;8.20;3.60;;;;;;;21.82;100.00;99243.69;104374;1252;61558;-66
2023/08/04 03:11:01;;;;;;;3.30;3.00;;;;;;;21.84;100.00;99243.08;104325;1255;60466;-61
2023/08/04 03:13:30;;;;;;;6.00;3.20;;;;;;;21.88;100.00;99247.17;104337;1262;74205;-62
2023/08/04 03:15:57;;;;;;;5.20;3.20;;;;;;;21.91;100.00;99246.94;104314;1256;69387;-63
2023/08/04 03:18:24;;;;;;;3.80;3.50;;;;;;;21.92;100.00;99245.84;104300;1262;73074;-61
2023/08/04 03:20:51;;;;;;;5.60;3.20;;;;;;;21.95;100.00;99249.54;104405;1259;61633;-60
2023/08/04 03:23:19;;;;;;;7.00;3.80;;;;;;;21.94;100.00;99244.77;104266;1269;59912;-62
2023/08/04 03:25:46;;;;;;;3.50;3.30;;;;;;;21.97;100.00;99245.23;104327;1253;73593;-61
2023/08/04 03:28:13;;;;;;;3.40;3.10;;;;;;;22.01;100.00;99248.64;104415;1253;69169;-62
2023/08/04 03:30:40;;;;;;;4.10;3.70;;;;;;;22.03;100.00;99243.20;104460;1256;73015;-64
2023/08/04 03:33:07;;;;;;;4.70;3.40;;;;;;;22.07;100.00;99244.92;104341;1254;61507;-62
2023/08/04 03:35:34;;;;;;;3.60;3.40;;;;;;;22.12;100.00;99243.38;104290;1257;60558;-62
2023/08/04 03:38:02;;;;;;;4.70;3.40;;;;;;;22.15;100.00;99242.61;104262;1258;76204;-61
2023/08/04 03:40:29;;;;;;;3.80;3.50;;;;;;;22.17;100.00;99245.42;104313;1253;70202;-62
2023/08/04 03:42:56;;;;;;;4.20;3.00;;;;;;;22.21;100.00;99244.95;104268;1253;72172;-61
2023/08/04 03:45:23;;;;;;;4.10;3.70;;;;;;;22.22;100.00;99245.90;104463;1252;62160;-60
2023/08/04 03:47:50;;;;;;;4.00;3.50;;;;;;;22.23;100.00;99246.96;104323;1254;60442;-61
2023/08/04 03:50:17;;;;;;;4.50;3.40;;;;;;;22.24;100.00;99247.77;104321;1252;74444;-62
2023/08/04 03:52:44;;;;;;;4.00;3.50;;;;;;;22.26;100.00;99247.27;104322;1256;69560;-62
2023/08/04 03:55:10;;;;;;;3.70;3.40;;;;;;;22.27;100.00;99252.33;104454;1252;73064;-63
2023/08/04 03:57:37;;;;;;;6.00;3.30;;;;;;;22.31;100.00;99250.66;108423;1252;62419;-62
2023/08/04 04:00:06;;;;;;;3.90;3.50;;;;;;;22.36;100.00;99248.94;108484;1252;60803;-62
2023/08/04 04:02:39;;;;;;;5.70;3.50;;;;;;;22.41;100.00;99251.00;108526;1251;73724;-62
2023/08/04 04:05:06;;;;;;;6.90;3.80;;;;;;;22.46;100.00;99254.10;108421;1251;69191;-62
2023/08/04 04:07:33;;;;;;;3.90;3.40;;;;;;;22.51;100.00;99260.17;108507;1251;72290;-63
2023/08/04 04:10:00;;;;;;;6.40;3.30;;;;;;;22.56;100.00;99257.72;107623;1252;60779;-60
2023/08/04 04:12:27;;;;;;;3.60;3.40;;;;;;;22.63;100.00;99259.05;104458;1253;60559;-60
2023/08/04 04:14:53;;;;;;;5.30;3.70;;;;;;;22.69;100.00;99263.52;104441;1256;72327;-61
2023/08/04 04:17:20;;;;;;;3.50;3.30;;;;;;;22.81;100.00;99270.23;104392;1269;69697;-61
2023/08/04 04:19:47;;;;;;;5.40;4.20;;;;;;;22.87;100.00;99265.52;104389;1256;72468;-61
2023/08/04 04:22:15;;;;;;;4.00;3.70;;;;;;;22.92;100.00;99266.60;104553;1253;61712;-61
2023/08/04 04:24:42;;;;;;;6.60;3.70;;;;;;;22.97;100.00;99263.13;104303;1267;60499;-61
2023/08/04 04:27:08;;;;;;;5.20;3.40;;;;;;;23.02;100.00;99269.10;104226;1256;74285;-61
2023/08/04 04:29:35;;;;;;;4.30;4.00;;;;;;;23.08;100.00;99261.70;104408;1267;69648;-61
2023/08/04 04:32:02;;;;;;;4.10;3.70;;;;;;;23.14;100.00;99255.91;104412;1253;72745;-61
2023/08/04 04:34:30;;;;;;;6.70;3.90;;;;;;;23.18;100.00;99256.71;104404;1264;61750;-61
2023/08/04 04:36:58;;;;;;;4.20;3.60;;;;;;;23.23;100.00;99255.55;104304;1269;59706;-61
2023/08/04 04:39:25;;;;;;;5.90;3.60;;;;;;;23.28;100.00;99257.66;104269;1253;73485;-61
2023/08/04 04:41:52;;;;;;;4.90;4.00;;;;;;;23.36;100.00;99260.33;104319;1268;68419;-61
2023/08/04 04:44:19;;;;;;;4.70;3.90;;;;;;;23.42;100.00;99261.79;104369;1260;72770;-61
2023/08/04 04:46:46;;;;;;;5.10;4.00;;;;;;;23.49;100.00;99274.68;104516;1253;61587;-62
2023/08/04 04:49:13;;;;;;;3.80;3.60;;;;;;;23.53;100.00;99273.39;104207;1251;60671;-62
2023/08/04 04:51:42;;;;;;;4.70;3.60;;;;;;;23.58;100.00;99270.91;104353;1253;74600;-61
2023/08/04 04:54:09;;;;;;;4.50;3.80;;;;;;;23.64;100.00;99277.25;104409;1255;69339;-61
2023/08/04 04:56:38;;;;;;;5.30;4.00;;;;;;;23.68;100.00;99276.81;104447;1253;72486;-61
2023/08/04 05:01:52;;;;;;;5.90;4.00;;;;;;;23.52;100.00;99282.36;103404;1289;601358;-61
2023/08/04 05:04:20;;;;;;;5.80;4.10;;;;;;;23.85;100.00;99277.20;106618;1264;62419;-62
2023/08/04 05:06:47;;;;;;;4.70;4.30;;;;;;;23.95;100.00;99271.98;106688;1263;59714;-61
2023/08/04 05:09:15;;;;;;;4.50;4.20;;;;;;;24.02;100.00;99278.39;106114;1263;72482;-62
2023/08/04 05:11:42;;;;;;;4.30;4.00;;;;;;;24.12;100.00;99289.48;104891;1263;69609;-62
2023/08/04 05:14:10;;;;;;;5.10;3.70;;;;;;;24.21;100.00;99287.16;103768;1269;72570;-61
2023/08/04 05:16:38;;;;;;;;;;;;;;;24.28;100.00;99290.11;103772;1279;217165;-61
2023/08/04 05:19:06;;;;;;;6.10;4.00;;;;;;;24.37;100.00;99288.30;103955;1263;59675;-60
2023/08/04 05:21:36;;;;;;;4.60;4.30;;;;;;;24.44;100.00;99294.63;104063;1264;73362;-60
2023/08/04 05:24:03;;;;;;;5.00;3.90;;;;;;;24.54;100.00;99295.80;103879;1275;68386;-61
2023/08/04 05:26:31;;;;;;;;;;;;;;;24.62;100.00;99296.75;104223;1259;71615;-60
2023/08/04 05:28:59;;;;;;;4.30;4.00;;;;;;;24.66;100.00;99298.23;104105;1263;60686;-60
2023/08/04 05:31:26;;;;;;;6.30;4.40;;;;;;;24.72;100.00;99296.54;104133;1266;59879;-60
2023/08/04 05:33:56;;;;;;;;;;;;;;;24.82;100.00;99292.41;104266;1259;72248;-60
2023/08/04 05:36:23;;;;;;;4.40;4.00;;;;;;;24.91;100.00;99292.19;104054;1265;69635;-60
2023/08/04 05:38:51;;;;;;;4.70;4.30;;;;;;;24.99;100.00;99294.42;103854;1276;72493;-59
2023/08/04 05:41:19;;;;;;;5.50;4.30;;;;;;;25.06;100.00;99293.42;103878;1266;61415;-59
2023/08/04 05:43:49;;;;;;;8.60;4.60;;;;;;;25.17;100.00;99289.15;104054;1260;59972;-60
2023/08/04 05:46:16;;;;;;;4.30;3.90;;;;;;;25.25;100.00;99290.89;104393;1258;72129;-58
2023/08/04 05:48:44;;;;;;;;;;;;;;;25.33;100.00;99287.73;104345;1260;69069;-59
2023/08/04 05:51:11;;;;;;;;;;;;;;;25.39;100.00;99290.08;104214;1260;72324;-59
2023/08/04 05:53:39;;;;;;;5.80;5.30;;;;;;;25.39;100.00;99289.80;104103;1262;61068;-58
2023/08/04 05:56:07;;;;;;;;;;;;;;;25.41;100.00;99291.45;104771;1259;60078;-59
2023/08/04 05:58:34;;;;;;;;;;;;;;;25.46;100.00;99285.36;107396;1259;73326;-59
2023/08/04 06:01:02;;;;;;;6.70;4.00;;;;;;;25.50;100.00;99288.08;106147;1263;69338;-60
2023/08/04 06:03:30;;;;;;;4.70;4.30;;;;;;;25.61;100.00;99291.32;105032;1261;72442;-59
2023/08/04 06:05:58;;;;;;;;;;;;;;;25.69;100.00;99291.75;105195;1259;62406;-60
2023/08/04 06:08:28;;;;;;;4.90;4.40;;;;;;;25.74;100.00;99293.15;107405;1259;59817;-60
2023/08/04 06:10:56;;;;;;;4.50;4.10;;;;;;;25.84;100.00;99289.52;107329;1258;73132;-59
2023/08/04 06:13:25;;;;;;;4.50;4.20;;;;;;;25.95;100.00;99287.44;104198;1262;68304;-59
2023/08/04 06:15:53;;;;;;;7.80;4.40;;;;;;;26.00;100.00;99286.10;103975;1267;72349;-59
2023/08/04 06:18:21;;;;;;;4.70;4.20;;;;;;;26.09;100.00;99291.43;104054;1260;61437;-59
2023/08/04 06:20:50;;;;;;;;;;;;;;;26.17;100.00;99292.34;103857;1260;59849;-58
2023/08/04 06:23:21;;;;;;;4.70;4.30;;;;;;;26.23;100.00;99294.33;104094;1260;73725;-59
2023/08/04 06:36:09;;;;;;;4.20;4.00;;;;;;;26.58;100.00;99299.32;103960;1270;63404;-59
2023/08/04 06:38:37;;;;;;;4.20;3.90;;;;;;;26.68;100.00;99298.36;103845;1261;60526;-59
2023/08/04 06:41:05;;;;;;;4.90;3.90;;;;;;;26.77;100.00;99301.95;103941;1259;73268;-59
2023/08/04 06:43:32;;;;;;;;;;;;;;;26.91;100.00;99302.16;103819;1279;69457;-59
2023/08/04 06:46:05;;;;;;;4.40;4.00;;;;;;;27.04;100.00;99301.77;103755;1260;72606;-59
2023/08/04 06:48:33;;;;;;;7.00;4.00;;;;;;;27.11;100.00;99297.66;103938;1262;61870;-59
2023/08/04 06:51:00;;;;;;;4.50;4.10;;;;;;;27.19;100.00;99299.17;103826;1277;59988;-59
2023/08/04 06:53:28;;;;;;;5.00;4.20;;;;;;;27.28;100.00;99301.17;103879;1260;72933;-59
2023/08/04 06:55:58;;;;;;;4.90;4.50;;;;;;;27.38;100.00;99302.02;103828;1264;69162;-59
2023/08/04 06:58:26;;;;;;;;;;;;;;;27.49;100.00;99303.76;103844;1258;72476;-60
2023/08/04 07:00:56;;;;;;;5.10;3.80;;;;;;;27.55;100.00;99307.27;104102;1263;61392;-60
2023/08/04 07:03:24;;;;;;;4.80;3.80;;;;;;;27.60;100.00;99308.63;104275;1262;60155;-60
2023/08/04 07:05:55;;;;;;;6.30;4.50;;;;;;;27.70;100.00;99305.33;103920;1264;72217;-59
2023/08/04 07:08:22;;;;;;;;;;;;;;;27.79;100.00;99310.18;106444;1260;69091;-59
2023/08/04 07:10:50;;;;;;;4.20;3.80;;;;;;;27.88;100.00;99318.20;104630;1262;72331;-58
2023/08/04 07:13:18;;;;;;;5.50;3.90;;;;;;;27.92;100.00;99311.79;103983;1261;61523;-58
2023/08/04 07:15:56;;;;;;;4.40;4.00;;;;;;;27.98;100.00;99312.75;104222;1261;61008;-59
2023/08/04 07:18:25;;;;;;;6.10;3.30;;;;;;;28.05;100.00;99308.14;105399;1265;72843;-59
2023/08/04 07:20:55;;;;;;;4.10;3.70;;;;;;;28.12;100.00;99310.83;107193;1260;69750;-60
2023/08/04 07:23:23;;;;;;;3.60;3.40;;;;;;;28.23;100.00;99307.84;107264;1262;73014;-59
2023/08/04 07:25:54;;;;;;;;;;;;;;;28.34;100.00;99305.28;107372;1261;62807;-58
2023/08/04 07:28:22;;;;;;;5.80;4.00;;;;;;;28.43;100.00;99310.41;107346;1261;59510;-58
2023/08/04 07:30:50;;;;;;;3.70;3.40;;;;;;;28.52;100.00;99314.46;107281;1262;73291;-58
2023/08/04 07:33:17;;;;;;;;;;;;;;;28.60;100.00;99313.81;107748;1256;69255;-58
2023/08/04 07:38:32;;;;;;;5.40;3.80;;;;;;;28.78;100.00;99310.65;102279;1283;601661;-58
2023/08/04 07:41:00;;;;;;;3.80;3.40;;;;;;;28.86;100.00;99309.31;104179;1266;60600;-59
2023/08/04 07:43:27;;;;;;;4.50;3.40;;;;;;;28.95;100.00;99308.61;103897;1271;59689;-58
2023/08/04 07:45:55;;;;;;;;;;;;;;;28.99;100.00;99307.77;103842;1271;72037;-58
2023/08/04 07:48:23;;;;;;;3.80;3.30;;;;;;;29.03;100.00;99305.02;103792;1266;68499;-57
2023/08/04 07:50:51;;;;;;;;;;;;;;;29.07;100.00;99304.52;104063;1272;72716;-57
2023/08/04 07:53:19;;;;;;;3.30;3.10;;;;;;;29.11;100.00;99304.15;104277;1266;248580;-57
2023/08/04 07:55:56;;;;;;;4.30;2.80;;;;;;;29.14;100.00;99303.15;105981;1263;59709;-57
2023/08/04 07:58:24;;;;;;;4.80;2.80;;;;;;;29.19;100.00;99297.95;104487;1266;71304;-58
2023/08/04 08:00:53;;;;;;;3.00;2.80;;;;;;;29.27;100.00;99297.66;105811;1263;68180;-58
2023/08/04 08:03:21;;;;;;;3.60;2.80;;;;;;;29.38;100.00;99298.28;107015;1263;73320;-58
2023/08/04 08:05:51;;;;;;;4.00;2.90;;;;;;;29.47;100.00;99299.62;106224;1263;62240;-57
2023/08/04 08:08:18;;;;;;;2.90;2.70;;;;;;;29.56;100.00;99304.00;104459;1263;59755;-57
2023/08/04 08:10:46;;;;;;;3.40;3.10;;;;;;;29.64;100.00;99301.45;104236;1268;72892;-58
2023/08/04 08:13:15;;;;;;;4.60;3.10;;;;;;;29.71;100.00;99300.36;104074;1263;68395;-57
2023/08/04 08:15:45;;;;;;;4.00;3.20;;;;;;;29.74;100.00;99306.50;104517;1260;72421;-57
2023/08/04 08:18:13;;;;;;;3.70;3.40;;;;;;;29.80;100.00;99307.88;104638;1256;61472;-58
2023/08/04 08:20:41;;;;;;;;;;;;;;;29.87;100.00;99310.63;104281;1261;59814;-58
2023/08/04 08:23:09;;;;;;;3.00;2.50;;;;;;;29.97;100.00;99309.77;104415;1264;72959;-58
2023/08/04 08:25:42;;;;;;;3.20;2.90;;;;;;;30.07;100.00;99313.63;104321;1269;69364;-60
2023/08/04 08:28:10;;;;;;;3.30;3.00;;;;;;;30.19;100.00;99309.42;108080;1254;72922;-57
2023/08/04 08:30:39;;;;;;;3.00;2.60;;;;;;;30.26;100.00;99302.65;108109;1255;61842;-58
2023/08/04 08:33:08;;;;;;;2.70;2.50;;;;;;;30.32;100.00;99303.54;108068;1254;60219;-58
2023/08/04 08:35:43;;;;;;;4.40;2.70;;;;;;;30.38;100.00;99302.98;108090;1255;71890;-58
2023/08/04 08:38:13;;;;;;;2.50;2.30;;;;;;;30.42;99.33;99302.84;108143;1255;69187;-58
2023/08/04 08:40:42;;;;;;;2.50;2.30;;;;;;;30.46;100.00;99304.28;108026;1256;72423;-57
2023/08/04 08:43:26;;;;;;;3.60;2.70;;;;;;;30.46;100.00;99305.30;107989;1255;59749;-58
2023/08/04 08:45:55;;;;;;;2.80;2.60;;;;;;;30.57;100.00;99303.89;108105;1255;60084;-57
2023/08/04 08:48:26;;;;;;;2.90;2.70;;;;;;;30.74;100.00;99307.45;107755;1255;72905;-58
2023/08/04 08:51:00;;;;;;;3.20;2.60;;;;;;;30.84;99.77;99308.77;107921;1256;69087;-59
2023/08/04 08:53:30;;;;;;;3.00;2.50;;;;;;;30.91;100.00;99311.34;107923;1256;71938;-57
2023/08/04 08:56:02;;;;;;;2.90;2.70;;;;;;;31.00;99.00;99311.34;107971;1256;59803;-57
2023/08/04 08:58:30;;;;;;;2.80;2.60;;;;;;;31.09;100.00;99315.44;107706;1256;59061;-58
2023/08/04 09:01:02;;;;;;;3.50;2.60;;;;;;;31.19;100.00;99315.85;107961;1255;73049;-57
2023/08/04 09:03:36;;;;;;;2.80;2.60;;;;;;;31.26;100.00;99315.54;107673;1255;69164;-58
2023/08/04 09:06:04;;;;;;;3.90;2.50;;;;;;;31.35;99.55;99311.91;107921;1256;73321;-59
2023/08/04 09:08:32;;;;;;;3.20;2.20;;;;;;;31.43;99.48;99313.99;107969;1257;59711;-57
2023/08/04 09:11:02;;;;;;;;;;;;;;;31.50;99.05;99316.02;107948;1256;60735;-58
2023/08/04 09:13:35;;;;;;;4.70;2.30;;;;;;;31.57;99.97;99312.92;108009;1256;72799;-58
2023/08/04 09:16:05;;;;;;;4.10;2.60;;;;;;;31.60;99.63;99313.39;108010;1256;69234;-57
2023/08/04 09:18:39;;;;;;;2.70;2.50;;;;;;;31.62;96.64;99315.80;108272;1254;72743;-58
2023/08/04 09:21:06;;;;;;;3.20;2.60;;;;;;;31.73;96.53;99320.30;107922;1254;59050;-59
2023/08/04 09:23:37;;;;;;;;;;;;;;;31.83;97.86;99316.77;107964;1254;59891;-58
2023/08/04 09:26:05;;;;;;;2.90;2.50;;;;;;;31.88;97.90;99317.73;107940;1257;72781;-58
2023/08/04 09:28:32;;;;;;;;;;;;;;;31.89;96.14;99317.92;108072;1253;69279;-58
2023/08/04 09:31:03;;;;;;;2.50;2.30;;;;;;;31.94;95.14;99315.62;108122;1253;72510;-58
2023/08/04 09:33:31;;;;;;;4.50;2.40;;;;;;;32.02;96.02;99317.12;108071;1253;59829;-58
2023/08/04 09:36:05;;;;;;;2.70;2.40;;;;;;;32.10;93.30;99316.37;108129;1253;59733;-59
2023/08/04 09:38:37;;;;;;;2.40;2.10;;;;;;;32.20;86.60;99315.38;108101;1253;73676;-58
2023/08/04 09:41:09;;;;;;;5.40;2.60;;;;;;;32.28;86.95;99315.52;108067;1257;71918;-58
2023/08/04 09:43:43;;;;;;;2.80;2.40;;;;;;;32.35;86.60;99316.60;108158;1255;72389;-58
2023/08/04 09:46:19;;;;;;;2.60;2.50;;;;;;;32.39;87.10;99317.85;108101;1254;59767;-59
2023/08/04 09:48:52;;;;;;;3.80;2.30;;;;;;;32.39;88.16;99321.87;108045;1255;59684;-59
2023/08/04 09:51:23;;;;;;;2.50;2.30;;;;;;;32.38;84.71;99320.73;108131;1254;73257;-58
2023/08/04 09:53:54;;;;;;;7.10;2.50;;;;;;;32.43;87.60;99324.65;108079;1259;69428;-58
2023/08/04 09:56:23;;;;;;;3.30;3.00;;;;;;;32.50;88.35;99323.41;108076;1256;72249;-61
2023/08/04 09:58:53;;;;;;;3.10;2.80;;;;;;;32.56;86.37;99325.10;107984;1256;59957;-59
2023/08/04 10:01:28;;;;;;;3.30;3.00;;;;;;;32.55;90.84;99323.10;107985;1255;59829;-59
2023/08/04 10:03:58;;;;;;;4.40;3.00;;;;;;;32.62;92.44;99323.77;108106;1254;72844;-58
2023/08/04 10:06:28;;;;;;;3.10;2.90;;;;;;;32.68;89.11;99322.94;108191;1255;69239;-58
2023/08/04 10:09:06;;;;;;;3.80;2.90;;;;;;;32.78;91.64;99322.68;107893;1255;72353;-59
2023/08/04 10:11:38;;;;;;;3.10;2.90;;;;;;;32.85;90.74;99324.19;108049;1255;60776;-58
2023/08/04 10:14:08;;;;;;;4.40;3.30;;;;;;;32.91;90.46;99323.00;108022;1255;59712;-59
2023/08/04 10:16:36;;;;;;;4.50;3.30;;;;;;;33.00;86.25;99326.02;108088;1254;71979;-58
2023/08/04 10:19:06;;;;;;;3.30;3.00;;;;;;;33.10;87.45;99326.00;108071;1254;69064;-58
2023/08/04 10:21:40;;;;;;;3.20;2.90;;;;;;;33.17;87.57;99326.76;108156;1254;71147;-58
2023/08/04 10:24:09;;;;;;;3.40;3.10;;;;;;;33.19;88.57;99329.22;108150;1254;59815;-59
2023/08/04 10:26:48;;;;;;;3.20;2.90;;;;;;;33.21;90.50;99330.92;108140;1255;59753;-58
2023/08/04 10:29:19;;;;;;;3.00;2.80;;;;;;;33.27;92.45;99329.83;108204;1255;72857;-58
2023/08/04 10:31:57;;;;;;;4.80;3.20;;;;;;;33.31;94.20;99333.52;108230;1253;70696;-59
2023/08/04 10:34:29;;;;;;;3.80;2.80;;;;;;;33.41;91.80;99336.01;108129;1256;72515;-58
2023/08/04 10:37:12;;;;;;;3.00;2.80;;;;;;;33.46;92.67;99335.63;108258;1256;59889;-59
2023/08/04 10:39:55;;;;;;;3.40;3.10;;;;;;;33.49;91.50;99333.60;108092;1254;60068;-59
2023/08/04 10:42:31;;;;;;;7.10;2.90;;;;;;;33.53;85.74;99333.09;108274;1254;71774;-58
2023/08/04 10:45:05;;;;;;;2.60;2.40;;;;;;;33.50;79.78;99332.71;108231;1254;70248;-57
2023/08/04 10:47:53;;;;;;;4.10;2.90;;;;;;;33.47;79.86;99339.14;108111;1254;73108;-58
2023/08/04 10:50:26;;;;;;;2.50;2.40;;;;;;;33.45;77.96;99338.20;108113;1254;60315;-61
2023/08/04 10:53:01;;;;;;;5.10;3.00;;;;;;;33.44;79.79;99340.05;107833;1259;59724;-58
2023/08/04 10:55:29;;;;;;;6.70;3.00;;;;;;;33.46;81.39;99336.16;108145;1253;72241;-58
2023/08/04 10:57:59;;;;;;;3.20;3.00;;;;;;;33.48;81.19;99341.66;108127;1258;69353;-58
2023/08/04 11:00:28;;;;;;;4.40;3.20;;;;;;;33.52;82.34;99344.98;107938;1258;71817;-60
2023/08/04 11:03:02;;;;;;;4.10;3.20;;;;;;;33.52;82.29;99344.66;107877;1254;59876;-58
2023/08/04 11:05:34;;;;;;;3.30;3.00;;;;;;;33.55;81.93;99337.23;108195;1256;60097;-58
2023/08/04 11:08:04;;;;;;;3.50;3.20;;;;;;;33.61;83.39;99339.65;107847;1255;73310;-58
2023/08/04 11:10:35;;;;;;;3.30;3.00;;;;;;;33.66;83.08;99339.34;108243;1255;69917;-59
2023/08/04 11:13:04;;;;;;;3.90;3.20;;;;;;;33.73;82.52;99336.55;108027;1259;72920;-58
2023/08/04 11:15:43;;;;;;;3.10;2.90;;;;;;;33.83;83.50;99343.80;108143;1254;60193;-58
2023/08/04 11:18:18;;;;;;;3.40;3.10;;;;;;;33.91;79.81;99339.39;108286;1253;60051;-58
2023/08/04 11:20:51;;;;;;;6.20;3.20;;;;;;;33.93;81.81;99343.98;108258;1254;72974;-58
2023/08/04 11:23:28;;;;;;;6.20;3.20;;;;;;;33.92;79.52;99340.27;108022;1254;69141;-58
2023/08/04 11:26:06;;;;;;;3.20;3.00;;;;;;;33.93;81.95;99341.84;107936;1257;71429;-58
2023/08/04 11:28:40;;;;;;;3.30;2.90;;;;;;;33.97;82.58;99340.42;107750;1255;59798;-58
2023/08/04 11:31:10;;;;;;;3.70;3.40;;;;;;;33.99;81.26;99340.61;107940;1254;60496;-59
2023/08/04 11:33:46;;;;;;;3.00;2.80;;;;;;;34.00;81.05;99341.61;108142;1254;72782;-59
2023/08/04 11:36:21;;;;;;;4.20;3.80;;;;;;;34.05;80.76;99342.31;107978;1259;70266;-60
2023/08/04 11:39:00;;;;;;;4.10;3.10;;;;;;;34.07;80.83;99343.75;108143;1254;73393;-60
2023/08/04 11:41:35;;;;;;;6.10;3.40;;;;;;;34.06;79.59;99343.27;107912;1254;59766;-60
2023/08/04 11:44:03;;;;;;;3.30;3.10;;;;;;;34.12;78.09;99343.94;108161;1254;59733;-60
2023/08/04 11:46:33;;;;;;;3.80;3.30;;;;;;;34.14;76.35;99338.98;108279;1254;75021;-60
2023/08/04 11:49:06;;;;;;;3.60;3.10;;;;;;;34.07;78.63;99338.81;108164;1254;69188;-59